createdAt,value
2023-02-03T00:01:27.013Z,9.94
2023-02-03T00:03:53.564Z,9.98
2023-02-03T00:06:20.159Z,9.96
2023-02-03T00:08:47.312Z,9.65
2023-02-03T00:11:14.081Z,10.07
2023-02-03T00:13:40.861Z,9.74
2023-02-03T00:16:07.764Z,9.74
2023-02-03T00:18:34.475Z,9.71
2023-02-03T00:21:00.974Z,9.77
2023-02-03T00:23:31.947Z,9.83
2023-02-03T00:26:07.157Z,9.78
2023-02-03T00:28:33.687Z,10.07
2023-02-03T00:31:00.156Z,9.89
2023-02-03T00:33:26.616Z,9.54
2023-02-03T00:35:53.103Z,9.86
2023-02-03T00:38:19.565Z,9.48
2023-02-03T00:40:53.563Z,9.76
2023-02-03T00:43:21.310Z,9.65
2023-02-03T00:45:48.099Z,9.40
2023-02-03T00:48:14.769Z,9.86
2023-02-03T00:50:41.286Z,9.77
2023-02-03T00:53:07.775Z,9.79
2023-02-03T00:55:34.492Z,9.93
2023-02-03T00:58:01.009Z,9.85
2023-02-03T01:00:27.926Z,9.99
2023-02-03T01:02:54.769Z,9.95
2023-02-03T01:05:21.309Z,10.05
2023-02-03T01:07:48.060Z,9.72
2023-02-03T01:10:15.667Z,9.73
2023-02-03T01:12:42.177Z,9.82
2023-02-03T01:15:08.914Z,9.54
2023-02-03T01:17:35.467Z,9.40
2023-02-03T01:20:01.989Z,9.74
2023-02-03T01:22:31.618Z,9.71
2023-02-03T01:24:58.359Z,9.91
2023-02-03T01:27:25.003Z,9.77
2023-02-03T01:29:51.689Z,9.78
2023-02-03T01:32:18.138Z,9.76
2023-02-03T01:34:45.005Z,10.09
2023-02-03T01:37:11.839Z,10.22
2023-02-03T01:39:38.294Z,9.94
2023-02-03T01:42:06.019Z,10.15
2023-02-03T01:44:42.705Z,10.36
2023-02-03T01:47:16.293Z,10.36
2023-02-03T01:49:48.027Z,9.78
2023-02-03T01:52:15.200Z,9.93
2023-02-03T01:54:44.577Z,9.84
2023-02-03T01:57:17.136Z,10.01
2023-02-03T01:59:43.812Z,9.95
2023-02-03T02:02:11.648Z,9.72
2023-02-03T02:04:58.478Z,9.73
2023-02-03T02:07:25.506Z,9.90
2023-02-03T02:09:52.248Z,10.04
2023-02-03T02:12:18.877Z,9.82
2023-02-03T02:14:45.966Z,10.17
2023-02-03T02:17:45.054Z,10.23
2023-02-03T02:20:14.558Z,10.22
2023-02-03T02:23:06.109Z,10.06
2023-02-03T02:25:51.504Z,9.91
2023-02-03T02:28:42.001Z,9.66
2023-02-03T02:31:38.410Z,10.10
2023-02-03T02:34:28.954Z,9.97
2023-02-03T02:37:07.356Z,10.34
2023-02-03T02:39:47.193Z,10.15
2023-02-03T02:42:43.063Z,10.07
2023-02-03T02:45:14.604Z,10.22
2023-02-03T02:47:41.174Z,10.35
2023-02-03T02:50:22.789Z,10.41
2023-02-03T02:52:50.097Z,10.11
2023-02-03T02:55:27.740Z,9.63
2023-02-03T02:57:56.439Z,9.78
2023-02-03T03:00:23.509Z,9.81
2023-02-03T03:02:50.319Z,10.19
2023-02-03T03:05:18.144Z,10.21
2023-02-03T03:07:55.651Z,9.99
2023-02-03T03:10:25.017Z,10.21
2023-02-03T03:12:55.869Z,10.06
2023-02-03T03:15:27.480Z,9.87
2023-02-03T03:18:11.409Z,9.85
2023-02-03T03:20:40.390Z,9.91
2023-02-03T03:23:08.417Z,10.23
2023-02-03T03:25:41.093Z,10.14
2023-02-03T03:28:15.224Z,10.57
2023-02-03T03:30:41.938Z,10.22
2023-02-03T03:33:08.964Z,9.95
2023-02-03T03:36:14.915Z,9.95
2023-02-03T03:38:46.210Z,10.28
2023-02-03T03:41:37.391Z,9.94
2023-02-03T03:44:05.311Z,9.76
2023-02-03T03:46:36.117Z,10.48
2023-02-03T03:49:04.384Z,10.44
2023-02-03T03:51:48.193Z,9.71
2023-02-03T03:54:17.466Z,9.74
2023-02-03T03:56:57.061Z,9.86
2023-02-03T03:59:25.289Z,10.40
2023-02-03T04:01:52.704Z,9.78
2023-02-03T04:04:19.752Z,10.13
2023-02-03T04:06:46.236Z,9.90
2023-02-03T04:09:12.798Z,10.26
2023-02-03T04:11:58.028Z,10.31
2023-02-03T04:14:24.825Z,10.04
2023-02-03T04:16:51.451Z,9.92
2023-02-03T04:19:18.106Z,10.16
2023-02-03T04:21:44.744Z,10.01
2023-02-03T04:24:12.105Z,10.01
2023-02-03T04:26:38.998Z,10.50
2023-02-03T04:29:05.458Z,9.96
2023-02-03T04:31:32.290Z,9.96
2023-02-03T04:33:58.889Z,10.11
2023-02-03T04:36:25.409Z,10.40
2023-02-03T04:38:51.963Z,10.19
2023-02-03T04:41:18.523Z,9.97
2023-02-03T04:43:45.335Z,10.19
2023-02-03T04:46:11.965Z,10.46
2023-02-03T04:48:39.525Z,9.90
2023-02-03T04:51:08.201Z,9.93
2023-02-03T04:53:34.951Z,9.80
2023-02-03T04:56:04.216Z,9.84
2023-02-03T04:58:30.818Z,9.98
2023-02-03T05:00:57.689Z,10.07
2023-02-03T05:03:26.266Z,10.08
2023-02-03T05:05:53.199Z,10.14
2023-02-03T05:08:20.252Z,10.17
2023-02-03T05:10:46.768Z,10.23
2023-02-03T05:13:13.685Z,10.05
2023-02-03T05:15:43.408Z,10.10
2023-02-03T05:18:10.126Z,10.33
2023-02-03T05:20:36.899Z,9.81
2023-02-03T05:23:03.514Z,9.98
2023-02-03T05:25:30.332Z,9.85
2023-02-03T05:27:57.161Z,10.17
2023-02-03T05:30:24.070Z,10.00
2023-02-03T05:32:50.613Z,10.64
2023-02-03T05:35:17.326Z,10.24
2023-02-03T05:37:45.655Z,9.86
2023-02-03T05:40:31.883Z,10.00
2023-02-03T05:42:58.452Z,9.99
2023-02-03T05:45:25.135Z,9.68
2023-02-03T05:47:51.968Z,10.12
2023-02-03T05:50:18.559Z,10.45
2023-02-03T05:52:45.038Z,10.33
2023-02-03T05:55:11.556Z,10.15
2023-02-03T05:57:38.060Z,10.46
2023-02-03T06:00:07.445Z,10.22
2023-02-03T06:02:34.179Z,10.18
2023-02-03T06:05:01.575Z,10.52
2023-02-03T06:07:28.141Z,10.02
2023-02-03T06:09:54.670Z,9.87
2023-02-03T06:12:22.148Z,10.01
2023-02-03T06:14:48.880Z,10.01
2023-02-03T06:17:15.515Z,10.44
2023-02-03T06:19:42.073Z,10.19
2023-02-03T06:22:08.990Z,9.86
2023-02-03T06:24:35.578Z,10.16
2023-02-03T06:27:02.101Z,10.23
2023-02-03T06:29:28.644Z,9.86
2023-02-03T06:31:55.308Z,10.29
2023-02-03T06:34:21.926Z,10.25
2023-02-03T06:36:49.167Z,10.58
2023-02-03T06:39:16.131Z,9.93
2023-02-03T06:41:42.699Z,9.70
2023-02-03T06:44:09.161Z,10.46
2023-02-03T06:46:35.791Z,10.10
2023-02-03T06:49:02.310Z,10.18
2023-02-03T06:51:29.243Z,10.47
2023-02-03T06:53:55.988Z,10.28
2023-02-03T06:56:22.497Z,9.74
2023-02-03T06:58:49.034Z,10.34
2023-02-03T07:01:15.619Z,10.10
2023-02-03T07:03:42.396Z,9.96
2023-02-03T07:06:08.880Z,10.01
2023-02-03T07:08:35.328Z,10.03
2023-02-03T07:11:01.863Z,9.95
2023-02-03T07:13:28.675Z,9.69
2023-02-03T07:15:55.656Z,10.27
2023-02-03T07:21:14.051Z,9.51
2023-02-03T07:23:40.864Z,9.51
2023-02-03T07:26:08.366Z,9.45
2023-02-03T07:28:35.502Z,9.67
2023-02-03T07:31:04.757Z,9.34
2023-02-03T07:33:32.067Z,9.67
2023-02-03T07:35:59.684Z,9.73
2023-02-03T07:38:27.491Z,9.75
2023-02-03T07:40:54.436Z,9.78
2023-02-03T07:43:20.971Z,9.76
2023-02-03T07:45:47.995Z,9.76
2023-02-03T07:48:14.845Z,9.84
2023-02-03T07:50:41.514Z,9.70
2023-02-03T07:53:10.977Z,9.71
2023-02-03T07:55:40.537Z,9.81
2023-02-03T07:58:07.505Z,9.64
2023-02-03T08:00:34.693Z,9.68
2023-02-03T08:03:01.178Z,10.08
2023-02-03T08:05:27.987Z,9.83
2023-02-03T08:07:54.500Z,9.59
2023-02-03T08:10:21.167Z,9.84
2023-02-03T08:12:48.065Z,9.94
2023-02-03T08:15:14.643Z,10.11
2023-02-03T08:17:42.086Z,9.85
2023-02-03T08:20:09.587Z,9.92
2023-02-03T08:22:36.096Z,10.38
2023-02-03T08:25:02.743Z,10.07
2023-02-03T08:27:29.640Z,9.99
2023-02-03T08:29:56.129Z,9.98
2023-02-03T08:32:22.830Z,10.45
2023-02-03T08:34:50.400Z,9.94
2023-02-03T08:37:19.048Z,10.04
2023-02-03T08:39:45.501Z,9.83
2023-02-03T08:42:12.007Z,10.24
2023-02-03T08:44:41.385Z,10.19
2023-02-03T08:47:08.119Z,10.07
2023-02-03T08:49:35.908Z,9.74
2023-02-03T08:52:02.490Z,10.14
2023-02-03T08:54:28.938Z,9.99
2023-02-03T08:56:55.423Z,10.24
2023-02-03T08:59:21.963Z,10.35
2023-02-03T09:01:48.657Z,10.08
2023-02-03T09:04:19.693Z,10.27
2023-02-03T09:06:47.874Z,10.41
2023-02-03T09:09:15.101Z,10.16
2023-02-03T09:11:42.458Z,10.14
2023-02-03T09:14:09.703Z,10.17
2023-02-03T09:16:36.581Z,10.61
2023-02-03T09:19:03.119Z,10.31
2023-02-03T09:21:37.100Z,10.45
2023-02-03T09:24:08.827Z,10.24
2023-02-03T09:26:35.354Z,10.52
2023-02-03T09:29:02.266Z,10.72
2023-02-03T09:31:28.804Z,10.39
2023-02-03T09:33:55.428Z,10.42
2023-02-03T09:36:21.982Z,10.20
2023-02-03T09:38:49.269Z,10.55
2023-02-03T09:41:34.960Z,10.24
2023-02-03T09:44:06.585Z,10.27
2023-02-03T09:46:36.638Z,10.41
2023-02-03T09:49:08.876Z,10.45
2023-02-03T09:51:50.928Z,10.40
2023-02-03T09:54:26.609Z,10.38
2023-02-03T09:56:55.686Z,10.71
2023-02-03T09:59:23.066Z,10.33
2023-02-03T10:02:02.201Z,10.59
2023-02-03T10:04:34.803Z,10.72
2023-02-03T10:07:25.580Z,10.34
2023-02-03T10:10:03.061Z,10.54
2023-02-03T10:12:54.459Z,10.38
2023-02-03T10:15:38.448Z,10.66
2023-02-03T10:18:07.802Z,10.70
2023-02-03T10:20:39.907Z,10.83
2023-02-03T10:23:20.506Z,10.87
2023-02-03T10:25:57.400Z,10.66
2023-02-03T10:28:28.061Z,10.80
2023-02-03T10:30:57.325Z,10.90
2023-02-03T10:33:29.151Z,10.84
2023-02-03T10:35:59.533Z,10.65
2023-02-03T10:38:41.516Z,10.39
2023-02-03T10:41:08.250Z,10.49
2023-02-03T10:43:51.705Z,10.57
2023-02-03T10:46:29.223Z,10.44
2023-02-03T10:48:56.321Z,10.58
2023-02-03T10:51:28.773Z,10.89
2023-02-03T10:53:55.389Z,10.76
2023-02-03T10:56:35.132Z,10.46
2023-02-03T10:59:01.907Z,11.12
2023-02-03T11:01:38.806Z,11.13
2023-02-03T11:04:06.841Z,10.50
2023-02-03T11:06:35.290Z,10.94
2023-02-03T11:09:02.163Z,11.17
2023-02-03T11:11:32.407Z,10.93
2023-02-03T11:14:05.066Z,11.04
2023-02-03T11:16:33.655Z,10.95
2023-02-03T11:19:19.535Z,11.08
2023-02-03T11:21:54.314Z,10.79
2023-02-03T11:24:28.965Z,11.55
2023-02-03T11:27:03.131Z,11.22
2023-02-03T11:29:32.288Z,11.43
2023-02-03T11:32:01.837Z,10.97
2023-02-03T11:34:30.575Z,11.07
2023-02-03T11:36:57.389Z,10.81
2023-02-03T11:39:29.980Z,10.65
2023-02-03T11:41:56.957Z,11.04
2023-02-03T11:44:26.317Z,10.92
2023-02-03T11:46:59.133Z,11.05
2023-02-03T11:50:03.799Z,10.98
2023-02-03T11:52:38.104Z,11.08
2023-02-03T11:55:17.577Z,10.65
2023-02-03T11:58:10.251Z,10.92
2023-02-03T12:00:58.395Z,11.20
2023-02-03T12:03:37.198Z,10.92
2023-02-03T12:06:14.652Z,10.75
2023-02-03T12:08:54.923Z,11.00
2023-02-03T12:11:35.983Z,11.25
2023-02-03T12:14:25.050Z,10.68
2023-02-03T12:17:33.777Z,10.77
2023-02-03T12:20:06.828Z,10.89
2023-02-03T12:22:45.031Z,10.52
2023-02-03T12:25:26.669Z,11.22
2023-02-03T12:28:10.069Z,10.96
2023-02-03T12:30:46.832Z,11.02
2023-02-03T12:33:21.050Z,10.80
2023-02-03T12:36:13.233Z,10.99
2023-02-03T12:39:21.597Z,10.55
2023-02-03T12:42:01.941Z,10.68
2023-02-03T12:44:42.588Z,10.49
2023-02-03T12:47:16.947Z,10.65
2023-02-03T12:50:07.635Z,10.68
2023-02-03T12:52:57.263Z,10.77
2023-02-03T12:55:46.638Z,10.74
2023-02-03T12:58:40.363Z,10.74
2023-02-03T13:01:23.496Z,11.05
2023-02-03T13:04:14.317Z,10.75
2023-02-03T13:07:04.813Z,10.88
2023-02-03T13:09:51.444Z,11.20
2023-02-03T13:12:32.562Z,10.84
2023-02-03T13:15:26.787Z,10.64
2023-02-03T13:17:55.774Z,10.85
2023-02-03T13:20:25.412Z,10.86
2023-02-03T13:22:53.349Z,10.81
2023-02-03T13:25:40.964Z,10.81
2023-02-03T13:28:29.345Z,10.61
2023-02-03T13:31:11.119Z,10.50
2023-02-03T13:33:59.406Z,10.32
2023-02-03T13:36:38.004Z,10.54
2023-02-03T13:39:42.993Z,10.27
2023-02-03T13:42:33.000Z,10.65
2023-02-03T13:45:12.431Z,10.40
2023-02-03T13:47:39.528Z,10.87
2023-02-03T13:50:09.939Z,10.52
2023-02-03T13:52:47.812Z,10.92
2023-02-03T13:55:27.185Z,10.13
2023-02-03T13:57:54.085Z,10.64
2023-02-03T14:00:45.601Z,11.04
2023-02-03T14:03:24.172Z,10.80
2023-02-03T14:05:55.293Z,10.71
2023-02-03T14:08:28.062Z,11.13
2023-02-03T14:11:32.626Z,11.15
2023-02-03T14:14:08.374Z,11.18
2023-02-03T14:16:48.076Z,10.86
2023-02-03T14:19:29.918Z,10.88
2023-02-03T14:22:04.845Z,10.80
2023-02-03T14:24:33.489Z,11.00
2023-02-03T14:27:02.516Z,10.55
2023-02-03T14:29:36.488Z,10.76
2023-02-03T14:32:05.204Z,10.78
2023-02-03T14:34:45.224Z,10.95
2023-02-03T14:37:29.941Z,10.53
2023-02-03T14:40:11.290Z,10.91
2023-02-03T14:42:53.746Z,10.31
2023-02-03T14:45:39.280Z,11.14
2023-02-03T14:48:26.999Z,10.74
2023-02-03T14:51:17.845Z,10.65
2023-02-03T14:54:27.179Z,10.63
2023-02-03T14:57:19.619Z,10.79
2023-02-03T14:59:49.578Z,10.88
2023-02-03T15:02:23.318Z,10.61
2023-02-03T15:04:51.879Z,10.59
2023-02-03T15:07:41.754Z,11.14
2023-02-03T15:10:20.445Z,11.21
2023-02-03T15:12:48.404Z,11.22
2023-02-03T15:15:33.088Z,10.87
2023-02-03T15:18:12.739Z,10.42
2023-02-03T15:20:43.557Z,10.43
2023-02-03T15:23:24.348Z,10.78
2023-02-03T15:26:02.200Z,10.80
2023-02-03T15:28:30.195Z,10.77
2023-02-03T15:31:11.760Z,10.38
2023-02-03T15:33:38.645Z,10.32
2023-02-03T15:36:27.392Z,10.62
2023-02-03T15:38:59.285Z,10.86
2023-02-03T15:41:26.531Z,11.00
2023-02-03T15:43:57.962Z,10.95
2023-02-03T15:46:38.745Z,10.57
2023-02-03T15:49:11.984Z,10.63
2023-02-03T15:51:48.743Z,10.66
2023-02-03T15:54:30.495Z,10.79
2023-02-03T15:57:00.421Z,11.24
2023-02-03T15:59:32.616Z,10.86
2023-02-03T16:02:01.640Z,10.52
2023-02-03T16:04:28.253Z,10.71
2023-02-03T16:06:55.892Z,10.91
2023-02-03T16:09:34.960Z,10.60
2023-02-03T16:12:31.391Z,10.46
2023-02-03T16:15:03.184Z,10.31
2023-02-03T16:17:35.646Z,10.87
2023-02-03T16:20:23.600Z,10.89
2023-02-03T16:23:21.008Z,10.87
2023-02-03T16:26:13.742Z,10.84
2023-02-03T16:28:59.128Z,10.64
2023-02-03T16:31:44.045Z,10.54
2023-02-03T16:34:32.860Z,10.75
2023-02-03T16:37:18.031Z,10.73
2023-02-03T16:40:03.272Z,10.40
2023-02-03T16:42:56.660Z,10.42
2023-02-03T16:45:41.780Z,10.75
2023-02-03T16:48:30.660Z,10.86
2023-02-03T16:51:12.178Z,10.85
2023-02-03T16:53:38.945Z,10.78
2023-02-03T16:56:05.979Z,10.54
2023-02-03T16:58:32.619Z,10.90
2023-02-03T17:01:01.343Z,10.64
2023-02-03T17:03:28.705Z,10.97
2023-02-03T17:05:56.058Z,10.92
2023-02-03T17:08:24.902Z,11.02
2023-02-03T17:10:51.760Z,11.21
2023-02-03T17:13:20.231Z,10.84
2023-02-03T17:15:49.818Z,10.67
2023-02-03T17:18:16.668Z,10.61
2023-02-03T17:20:44.162Z,10.98
2023-02-03T17:23:11.234Z,10.51
2023-02-03T17:25:38.829Z,10.39
2023-02-03T17:28:06.413Z,10.70
2023-02-03T17:30:35.090Z,10.64
2023-02-03T17:33:02.922Z,10.44
2023-02-03T17:35:29.796Z,10.81
2023-02-03T17:37:56.637Z,10.79
2023-02-03T17:54:06.585Z,10.49
2023-02-03T17:56:35.492Z,10.43
2023-02-03T17:59:03.813Z,10.58
2023-02-03T18:01:30.759Z,10.04
2023-02-03T18:03:59.315Z,9.94
2023-02-03T18:06:28.001Z,10.41
2023-02-03T18:09:00.993Z,10.04
2023-02-03T18:11:28.992Z,10.34
2023-02-03T18:13:55.941Z,10.13
2023-02-03T18:16:29.252Z,9.74
2023-02-03T18:18:56.611Z,10.30
2023-02-03T18:21:24.581Z,10.08
2023-02-03T18:23:51.871Z,10.28
2023-02-03T18:26:19.804Z,10.29
2023-02-03T18:28:46.965Z,10.24
2023-02-03T18:31:15.704Z,9.94
2023-02-03T18:33:43.907Z,10.26
2023-02-03T18:36:12.738Z,9.98
2023-02-03T18:38:40.870Z,10.19
2023-02-03T18:41:17.801Z,10.16
2023-02-03T18:43:44.960Z,10.23
2023-02-03T18:46:14.336Z,10.16
2023-02-03T18:48:40.906Z,10.38
2023-02-03T18:51:12.979Z,10.01
2023-02-03T18:53:44.991Z,10.06
2023-02-03T18:56:16.768Z,10.13
2023-02-03T18:58:46.643Z,9.90
2023-02-03T19:01:27.236Z,10.02
2023-02-03T19:03:58.324Z,9.75
2023-02-03T19:06:29.130Z,10.15
2023-02-03T19:08:56.225Z,9.83
2023-02-03T19:11:26.204Z,10.00
2023-02-03T19:13:53.025Z,10.07
2023-02-03T19:16:19.812Z,10.32
2023-02-03T19:18:46.954Z,9.82
2023-02-03T19:21:14.339Z,10.12
2023-02-03T19:23:41.673Z,9.85
2023-02-03T19:26:09.874Z,10.07
2023-02-03T19:28:37.159Z,10.21
2023-02-03T19:31:09.016Z,9.97
2023-02-03T19:33:36.964Z,9.94
2023-02-03T19:36:07.606Z,10.08
2023-02-03T19:38:35.257Z,10.38
2023-02-03T19:41:02.541Z,9.74
2023-02-03T19:43:32.416Z,10.06
2023-02-03T19:45:59.951Z,9.85
2023-02-03T19:48:26.976Z,9.66
2023-02-03T19:50:54.347Z,9.77
2023-02-03T19:53:21.709Z,9.87
2023-02-03T19:55:49.042Z,9.57
2023-02-03T19:58:16.532Z,9.47
2023-02-03T20:00:43.439Z,9.97
2023-02-03T20:03:10.754Z,9.97
2023-02-03T20:05:38.255Z,10.37
2023-02-03T20:08:06.455Z,10.27
2023-02-03T20:10:33.652Z,10.14
2023-02-03T20:13:00.905Z,10.33
2023-02-03T20:15:27.891Z,10.07
2023-02-03T20:17:54.863Z,9.46
2023-02-03T20:20:23.965Z,9.85
2023-02-03T20:22:50.513Z,9.65
2023-02-03T20:25:17.425Z,10.12
2023-02-03T20:27:44.179Z,10.09
2023-02-03T20:30:12.001Z,9.96
2023-02-03T20:32:39.063Z,10.29
2023-02-03T20:35:06.483Z,9.75
2023-02-03T20:37:36.096Z,9.92
2023-02-03T20:40:06.947Z,9.78
2023-02-03T20:42:34.103Z,9.95
2023-02-03T20:45:01.116Z,9.90
2023-02-03T20:47:28.133Z,9.94
2023-02-03T20:49:56.082Z,9.35
2023-02-03T20:52:23.175Z,9.43
2023-02-03T20:54:50.025Z,9.08
2023-02-03T20:57:18.790Z,9.13
2023-02-03T20:59:46.472Z,9.72
2023-02-03T21:02:30.777Z,9.71
2023-02-03T21:04:58.127Z,9.56
2023-02-03T21:07:30.794Z,9.36
2023-02-03T21:10:01.706Z,9.38
2023-02-03T21:12:28.856Z,8.80
2023-02-03T21:14:56.393Z,9.18
2023-02-03T21:17:27.279Z,9.71
2023-02-03T21:19:55.435Z,8.83
2023-02-03T21:22:27.398Z,9.31
2023-02-03T21:24:57.912Z,9.20
2023-02-03T21:27:30.354Z,9.18
2023-02-03T21:29:58.686Z,9.23
2023-02-03T21:32:29.766Z,9.29
2023-02-03T21:34:56.413Z,9.38
2023-02-03T21:37:23.911Z,9.86
2023-02-03T21:39:50.886Z,9.91
2023-02-03T21:42:42.583Z,9.74
2023-02-03T21:45:19.804Z,9.97
2023-02-03T21:47:48.563Z,10.28
2023-02-03T21:50:36.379Z,10.14
2023-02-03T21:53:09.148Z,10.00
2023-02-03T21:55:41.571Z,10.24
2023-02-03T21:58:30.391Z,10.35
2023-02-03T22:00:59.616Z,10.42
2023-02-03T22:03:38.012Z,9.87
2023-02-03T22:06:16.768Z,9.62
2023-02-03T22:08:51.703Z,10.28
2023-02-03T22:11:20.185Z,9.88
2023-02-03T22:13:48.013Z,9.97
2023-02-03T22:16:17.138Z,9.86
2023-02-03T22:18:47.950Z,9.97
2023-02-03T22:21:15.538Z,9.92
2023-02-03T22:23:42.632Z,9.99
2023-02-03T22:26:10.798Z,9.78
2023-02-03T22:28:37.836Z,9.84
2023-02-03T22:31:05.219Z,9.74
2023-02-03T22:33:32.145Z,9.29
2023-02-03T22:35:58.612Z,9.96
2023-02-03T22:38:25.693Z,9.69
2023-02-03T22:40:53.016Z,9.88
2023-02-03T22:43:19.920Z,10.29
2023-02-03T22:45:46.511Z,9.47
2023-02-03T22:48:13.080Z,9.59
2023-02-03T22:50:39.781Z,9.24
2023-02-03T22:53:07.036Z,9.13
2023-02-03T22:55:33.738Z,9.25
2023-02-03T22:58:00.262Z,9.19
2023-02-03T23:00:27.200Z,9.56
2023-02-03T23:02:53.917Z,9.72
2023-02-03T23:05:20.480Z,9.06
2023-02-03T23:07:47.841Z,9.18
2023-02-03T23:10:18.858Z,9.33
2023-02-03T23:12:45.722Z,9.24
2023-02-03T23:15:13.211Z,9.49
2023-02-03T23:17:40.037Z,9.03
2023-02-03T23:20:08.210Z,9.32
2023-02-03T23:22:34.859Z,9.20
2023-02-03T23:25:02.478Z,9.59
2023-02-03T23:27:29.133Z,9.67
2023-02-03T23:29:55.750Z,9.83
2023-02-03T23:32:22.385Z,9.67
2023-02-03T23:35:07.429Z,9.52
2023-02-03T23:37:34.280Z,9.72
2023-02-03T23:40:00.888Z,9.28
2023-02-03T23:42:27.412Z,9.21
2023-02-03T23:44:53.958Z,8.90
2023-02-03T23:47:20.456Z,9.20
2023-02-03T23:49:47.230Z,8.66
2023-02-03T23:52:13.718Z,9.35
2023-02-03T23:54:40.395Z,9.33
2023-02-03T23:57:06.919Z,8.63
2023-02-03T23:59:33.491Z,9.42
